sensor_id;sensor_type;location;lat;lon;timestamp;pressure;altitude;pressure_sealevel;temperature;humidity
56042;BME280;48756;41.374;2.066;2023-04-09T00:00:32;101385.00;;;11.72;48.08
56042;BME280;48756;41.374;2.066;2023-04-09T00:03:00;101379.00;;;11.51;48.61
56042;BME280;48756;41.374;2.066;2023-04-09T00:05:26;101377.31;;;11.40;48.45
56042;BME280;48756;41.374;2.066;2023-04-09T00:07:51;101382.53;;;11.24;48.84
56042;BME280;48756;41.374;2.066;2023-04-09T00:10:16;101377.31;;;11.37;49.23
56042;BME280;48756;41.374;2.066;2023-04-09T00:12:42;101384.28;;;11.34;49.68
56042;BME280;48756;41.374;2.066;2023-04-09T00:15:07;101372.94;;;11.40;48.64
56042;BME280;48756;41.374;2.066;2023-04-09T00:17:33;101372.13;;;11.21;49.94
56042;BME280;48756;41.374;2.066;2023-04-09T00:19:58;101374.69;;;11.27;49.54
56042;BME280;48756;41.374;2.066;2023-04-09T00:22:23;101373.88;;;11.12;50.40
56042;BME280;48756;41.374;2.066;2023-04-09T00:24:49;101382.56;;;11.18;50.42
56042;BME280;48756;41.374;2.066;2023-04-09T00:27:14;101371.25;;;11.05;50.75
56042;BME280;48756;41.374;2.066;2023-04-09T00:29:40;101367.81;;;10.97;50.80
56042;BME280;48756;41.374;2.066;2023-04-09T00:32:05;101374.75;;;11.03;51.21
56042;BME280;48756;41.374;2.066;2023-04-09T00:34:30;101368.66;;;11.13;50.69
56042;BME280;48756;41.374;2.066;2023-04-09T00:36:56;101364.34;;;11.09;50.88
56042;BME280;48756;41.374;2.066;2023-04-09T00:39:21;101366.06;;;11.04;50.29
56042;BME280;48756;41.374;2.066;2023-04-09T00:41:47;101372.13;;;11.08;51.22
56042;BME280;48756;41.374;2.066;2023-04-09T00:44:12;101363.44;;;11.12;51.22
56042;BME280;48756;41.374;2.066;2023-04-09T00:46:37;101358.22;;;11.02;50.98
56042;BME280;48756;41.374;2.066;2023-04-09T00:49:03;101357.38;;;11.13;50.71
56042;BME280;48756;41.374;2.066;2023-04-09T00:51:29;101359.09;;;11.04;50.49
56042;BME280;48756;41.374;2.066;2023-04-09T00:53:55;101363.47;;;11.10;50.46
56042;BME280;48756;41.374;2.066;2023-04-09T00:56:21;101346.03;;;11.20;50.99
56042;BME280;48756;41.374;2.066;2023-04-09T00:58:47;101348.63;;;11.24;50.28
56042;BME280;48756;41.374;2.066;2023-04-09T01:01:13;101345.16;;;11.25;50.03
56042;BME280;48756;41.374;2.066;2023-04-09T01:03:38;101339.97;;;11.07;51.33
56042;BME280;48756;41.374;2.066;2023-04-09T01:06:07;101346.06;;;11.09;50.82
56042;BME280;48756;41.374;2.066;2023-04-09T01:08:54;101350.41;;;11.12;51.33
56042;BME280;48756;41.374;2.066;2023-04-09T01:13:59;101339.06;;;11.23;50.51
56042;BME280;48756;41.374;2.066;2023-04-09T01:16:28;101343.47;;;11.11;51.04
56042;BME280;48756;41.374;2.066;2023-04-09T01:19:01;101347.78;;;11.04;50.85
56042;BME280;48756;41.374;2.066;2023-04-09T01:21:32;101344.25;;;11.29;50.18
56042;BME280;48756;41.374;2.066;2023-04-09T01:29:00;101343.47;;;11.09;51.07
56042;BME280;48756;41.374;2.066;2023-04-09T01:31:27;101338.22;;;11.03;51.55
56042;BME280;48756;41.374;2.066;2023-04-09T01:33:54;101331.22;;;11.25;50.42
56042;BME280;48756;41.374;2.066;2023-04-09T01:36:19;101328.59;;;11.35;50.45
56042;BME280;48756;41.374;2.066;2023-04-09T01:38:45;101329.50;;;11.22;51.72
56042;BME280;48756;41.374;2.066;2023-04-09T01:41:13;101331.28;;;11.11;51.75
56042;BME280;48756;41.374;2.066;2023-04-09T01:43:39;101332.16;;;11.15;51.26
56042;BME280;48756;41.374;2.066;2023-04-09T01:46:05;101337.34;;;11.21;51.30
56042;BME280;48756;41.374;2.066;2023-04-09T01:48:31;101329.47;;;11.27;51.17
56042;BME280;48756;41.374;2.066;2023-04-09T01:50:57;101334.75;;;11.10;51.81
56042;BME280;48756;41.374;2.066;2023-04-09T01:53:23;101329.53;;;11.18;51.70
56042;BME280;48756;41.374;2.066;2023-04-09T01:55:52;101324.25;;;11.28;50.65
56042;BME280;48756;41.374;2.066;2023-04-09T01:58:17;101323.31;;;11.51;50.19
56042;BME280;48756;41.374;2.066;2023-04-09T02:00:44;101334.63;;;11.48;50.70
56042;BME280;48756;41.374;2.066;2023-04-09T02:03:17;101334.59;;;11.60;49.97
56042;BME280;48756;41.374;2.066;2023-04-09T02:05:45;101330.28;;;11.56;49.61
56042;BME280;48756;41.374;2.066;2023-04-09T02:08:14;101330.25;;;11.61;49.38
56042;BME280;48756;41.374;2.066;2023-04-09T02:10:42;101333.72;;;11.66;49.92
56042;BME280;48756;41.374;2.066;2023-04-09T02:13:15;101328.44;;;11.75;49.11
56042;BME280;48756;41.374;2.066;2023-04-09T02:15:42;101329.34;;;11.68;48.84
56042;BME280;48756;41.374;2.066;2023-04-09T02:18:21;101323.22;;;11.72;48.75
56042;BME280;48756;41.374;2.066;2023-04-09T02:20:46;101327.56;;;11.73;49.47
56042;BME280;48756;41.374;2.066;2023-04-09T02:23:12;101330.19;;;11.84;49.25
56042;BME280;48756;41.374;2.066;2023-04-09T02:25:41;101331.03;;;11.89;48.59
56042;BME280;48756;41.374;2.066;2023-04-09T02:28:07;101330.09;;;12.01;48.64
56042;BME280;48756;41.374;2.066;2023-04-09T02:30:32;101322.38;;;11.81;48.63
56042;BME280;48756;41.374;2.066;2023-04-09T02:32:57;101328.44;;;11.86;48.04
56042;BME280;48756;41.374;2.066;2023-04-09T02:35:23;101326.59;;;12.05;47.55
56042;BME280;48756;41.374;2.066;2023-04-09T02:37:48;101312.59;;;12.12;47.67
56042;BME280;48756;41.374;2.066;2023-04-09T02:40:14;101323.00;;;12.16;47.06
56042;BME280;48756;41.374;2.066;2023-04-09T02:42:39;101325.72;;;11.98;47.10
56042;BME280;48756;41.374;2.066;2023-04-09T02:45:05;101324.81;;;12.10;47.65
56042;BME280;48756;41.374;2.066;2023-04-09T02:47:30;101317.03;;;12.02;47.85
56042;BME280;48756;41.374;2.066;2023-04-09T02:49:55;101324.72;;;12.20;46.49
56042;BME280;48756;41.374;2.066;2023-04-09T02:52:21;101318.72;;;12.09;46.89
56042;BME280;48756;41.374;2.066;2023-04-09T02:54:48;101326.50;;;12.14;47.65
56042;BME280;48756;41.374;2.066;2023-04-09T02:57:13;101331.75;;;12.14;46.84
56042;BME280;48756;41.374;2.066;2023-04-09T02:59:39;101327.50;;;11.93;47.36
56042;BME280;48756;41.374;2.066;2023-04-09T03:02:04;101326.63;;;11.92;48.04
56042;BME280;48756;41.374;2.066;2023-04-09T03:04:30;101324.03;;;11.91;48.03
56042;BME280;48756;41.374;2.066;2023-04-09T03:06:55;101331.88;;;11.89;48.19
56042;BME280;48756;41.374;2.066;2023-04-09T03:09:20;101318.78;;;12.02;47.60
56042;BME280;48756;41.374;2.066;2023-04-09T03:11:46;101324.94;;;11.85;47.90
56042;BME280;48756;41.374;2.066;2023-04-09T03:14:11;101324.09;;;11.82;47.72
56042;BME280;48756;41.374;2.066;2023-04-09T03:16:36;101314.53;;;11.81;48.25
56042;BME280;48756;41.374;2.066;2023-04-09T03:19:01;101322.34;;;11.75;48.01
56042;BME280;48756;41.374;2.066;2023-04-09T03:21:27;101320.63;;;11.71;48.58
56042;BME280;48756;41.374;2.066;2023-04-09T03:23:52;101317.16;;;11.70;48.28
56042;BME280;48756;41.374;2.066;2023-04-09T03:26:17;101310.22;;;11.63;48.58
56042;BME280;48756;41.374;2.066;2023-04-09T03:28:43;101312.00;;;11.53;48.50
56042;BME280;48756;41.374;2.066;2023-04-09T03:31:08;101312.84;;;11.63;48.58
56042;BME280;48756;41.374;2.066;2023-04-09T03:33:33;101312.91;;;11.48;49.16
56042;BME280;48756;41.374;2.066;2023-04-09T03:35:59;101309.41;;;11.50;48.83
56042;BME280;48756;41.374;2.066;2023-04-09T03:38:24;101303.34;;;11.45;49.44
56042;BME280;48756;41.374;2.066;2023-04-09T03:40:50;101308.53;;;11.48;48.51
56042;BME280;48756;41.374;2.066;2023-04-09T03:43:15;101306.00;;;11.34;49.00
56042;BME280;48756;41.374;2.066;2023-04-09T03:45:43;101305.97;;;11.44;48.54
56042;BME280;48756;41.374;2.066;2023-04-09T03:48:08;101306.00;;;11.27;49.26
56042;BME280;48756;41.374;2.066;2023-04-09T03:50:37;101304.22;;;11.46;49.32
56042;BME280;48756;41.374;2.066;2023-04-09T03:53:03;101306.88;;;11.33;48.82
56042;BME280;48756;41.374;2.066;2023-04-09T03:55:28;101303.44;;;11.21;49.67
56042;BME280;48756;41.374;2.066;2023-04-09T03:57:53;101303.41;;;11.25;49.49
56042;BME280;48756;41.374;2.066;2023-04-09T04:00:19;101299.09;;;11.20;50.00
56042;BME280;48756;41.374;2.066;2023-04-09T04:02:44;101306.00;;;11.27;49.78
56042;BME280;48756;41.374;2.066;2023-04-09T04:05:09;101309.50;;;11.23;49.76
56042;BME280;48756;41.374;2.066;2023-04-09T04:07:36;101306.00;;;11.30;49.53
56042;BME280;48756;41.374;2.066;2023-04-09T04:10:02;101303.38;;;11.28;49.60
56042;BME280;48756;41.374;2.066;2023-04-09T04:12:27;101310.38;;;11.19;49.25
56042;BME280;48756;41.374;2.066;2023-04-09T04:14:55;101305.16;;;11.23;49.38
56042;BME280;48756;41.374;2.066;2023-04-09T04:17:20;101303.38;;;11.28;49.15
56042;BME280;48756;41.374;2.066;2023-04-09T04:19:45;101295.63;;;11.13;49.36
56042;BME280;48756;41.374;2.066;2023-04-09T04:22:10;101299.94;;;11.22;49.23
56042;BME280;48756;41.374;2.066;2023-04-09T04:24:36;101305.13;;;11.31;49.33
56042;BME280;48756;41.374;2.066;2023-04-09T04:27:01;101307.78;;;11.08;49.56
56042;BME280;48756;41.374;2.066;2023-04-09T04:29:26;101310.38;;;11.22;49.40
56042;BME280;48756;41.374;2.066;2023-04-09T04:31:52;101310.41;;;11.14;49.42
56042;BME280;48756;41.374;2.066;2023-04-09T04:34:17;101310.41;;;11.16;49.45
56042;BME280;48756;41.374;2.066;2023-04-09T04:36:42;101314.75;;;11.17;49.98
56042;BME280;48756;41.374;2.066;2023-04-09T04:39:08;101319.97;;;11.17;50.06
56042;BME280;48756;41.374;2.066;2023-04-09T04:41:33;101308.66;;;11.18;49.84
56042;BME280;48756;41.374;2.066;2023-04-09T04:43:58;101303.47;;;11.01;50.09
56042;BME280;48756;41.374;2.066;2023-04-09T04:46:24;101310.41;;;11.03;50.68
56042;BME280;48756;41.374;2.066;2023-04-09T04:48:49;101314.81;;;10.88;50.02
56042;BME280;48756;41.374;2.066;2023-04-09T04:51:14;101306.09;;;10.92;50.07
56042;BME280;48756;41.374;2.066;2023-04-09T04:53:39;101309.59;;;10.88;50.65
56042;BME280;48756;41.374;2.066;2023-04-09T04:56:05;101312.19;;;10.82;51.04
56042;BME280;48756;41.374;2.066;2023-04-09T04:58:30;101306.13;;;10.80;50.39
56042;BME280;48756;41.374;2.066;2023-04-09T05:00:56;101310.47;;;10.79;50.65
56042;BME280;48756;41.374;2.066;2023-04-09T05:03:21;101312.19;;;10.86;50.57
56042;BME280;48756;41.374;2.066;2023-04-09T05:05:46;101303.50;;;10.86;50.03
56042;BME280;48756;41.374;2.066;2023-04-09T05:08:12;101302.63;;;10.91;50.54
56042;BME280;48756;41.374;2.066;2023-04-09T05:10:39;101311.34;;;10.90;50.29
56042;BME280;48756;41.374;2.066;2023-04-09T05:13:05;101317.41;;;10.79;50.63
56042;BME280;48756;41.374;2.066;2023-04-09T05:15:30;101312.22;;;10.68;51.04
56042;BME280;48756;41.374;2.066;2023-04-09T05:17:56;101310.47;;;10.70;50.92
56042;BME280;48756;41.374;2.066;2023-04-09T05:20:22;101314.81;;;10.80;51.15
56042;BME280;48756;41.374;2.066;2023-04-09T05:22:47;101317.41;;;10.91;50.88
56042;BME280;48756;41.374;2.066;2023-04-09T05:25:12;101324.38;;;10.75;50.70
56042;BME280;48756;41.374;2.066;2023-04-09T05:27:40;101320.91;;;10.73;50.92
56042;BME280;48756;41.374;2.066;2023-04-09T05:30:05;101326.97;;;10.70;50.64
56042;BME280;48756;41.374;2.066;2023-04-09T05:32:31;101322.66;;;10.66;51.24
56042;BME280;48756;41.374;2.066;2023-04-09T05:34:56;101320.03;;;10.71;50.65
56042;BME280;48756;41.374;2.066;2023-04-09T05:37:22;101322.63;;;10.77;50.41
56042;BME280;48756;41.374;2.066;2023-04-09T05:39:47;101327.84;;;10.71;51.50
56042;BME280;48756;41.374;2.066;2023-04-09T05:42:12;101327.84;;;10.71;50.93
56042;BME280;48756;41.374;2.066;2023-04-09T05:44:38;101331.31;;;10.59;51.30
56042;BME280;48756;41.374;2.066;2023-04-09T05:47:03;101328.72;;;10.59;51.06
56042;BME280;48756;41.374;2.066;2023-04-09T05:49:29;101325.25;;;10.60;51.71
56042;BME280;48756;41.374;2.066;2023-04-09T05:51:54;101322.63;;;10.60;51.02
56042;BME280;48756;41.374;2.066;2023-04-09T05:54:20;101329.56;;;10.61;50.81
56042;BME280;48756;41.374;2.066;2023-04-09T05:56:45;101334.78;;;10.78;50.80
56042;BME280;48756;41.374;2.066;2023-04-09T05:59:12;101333.06;;;10.77;51.32
56042;BME280;48756;41.374;2.066;2023-04-09T06:01:37;101336.53;;;10.90;50.98
56042;BME280;48756;41.374;2.066;2023-04-09T06:04:02;101334.78;;;10.93;50.11
56042;BME280;48756;41.374;2.066;2023-04-09T06:06:28;101338.25;;;11.01;50.49
56042;BME280;48756;41.374;2.066;2023-04-09T06:08:53;101344.34;;;10.85;50.34
56042;BME280;48756;41.374;2.066;2023-04-09T06:11:18;101338.28;;;10.89;50.93
56042;BME280;48756;41.374;2.066;2023-04-09T06:13:43;101331.31;;;10.91;50.63
56042;BME280;48756;41.374;2.066;2023-04-09T06:16:09;101338.22;;;11.06;50.16
56042;BME280;48756;41.374;2.066;2023-04-09T06:18:36;101343.50;;;10.89;50.92
56042;BME280;48756;41.374;2.066;2023-04-09T06:21:06;101343.47;;;10.92;51.28
56042;BME280;48756;41.374;2.066;2023-04-09T06:23:32;101343.44;;;11.06;50.69
56042;BME280;48756;41.374;2.066;2023-04-09T06:25:57;101346.06;;;10.98;50.95
56042;BME280;48756;41.374;2.066;2023-04-09T06:28:22;101346.09;;;10.91;51.00
56042;BME280;48756;41.374;2.066;2023-04-09T06:30:48;101347.78;;;11.04;50.80
56042;BME280;48756;41.374;2.066;2023-04-09T06:33:13;101348.66;;;11.17;50.37
56042;BME280;48756;41.374;2.066;2023-04-09T06:35:38;101346.03;;;11.17;50.01
56042;BME280;48756;41.374;2.066;2023-04-09T06:38:04;101347.75;;;11.28;50.14
56042;BME280;48756;41.374;2.066;2023-04-09T06:40:30;101349.41;;;11.61;48.63
56042;BME280;48756;41.374;2.066;2023-04-09T06:42:58;101357.22;;;11.63;49.25
56042;BME280;48756;41.374;2.066;2023-04-09T06:45:23;101349.34;;;11.68;48.55
56042;BME280;48756;41.374;2.066;2023-04-09T06:47:48;101354.56;;;11.71;48.20
56042;BME280;48756;41.374;2.066;2023-04-09T06:50:14;101354.47;;;11.95;47.88
56042;BME280;48756;41.374;2.066;2023-04-09T06:52:39;101359.72;;;11.93;47.86
56042;BME280;48756;41.374;2.066;2023-04-09T06:55:05;101361.41;;;11.99;47.83
56042;BME280;48756;41.374;2.066;2023-04-09T06:57:30;101360.63;;;11.88;48.35
56042;BME280;48756;41.374;2.066;2023-04-09T06:59:56;101357.06;;;12.04;47.45
56042;BME280;48756;41.374;2.066;2023-04-09T07:02:21;101359.66;;;12.09;47.00
56042;BME280;48756;41.374;2.066;2023-04-09T07:04:47;101356.13;;;12.11;47.05
56042;BME280;48756;41.374;2.066;2023-04-09T07:07:12;101358.53;;;12.43;46.12
56042;BME280;48756;41.374;2.066;2023-04-09T07:09:37;101359.25;;;12.65;45.61
56042;BME280;48756;41.374;2.066;2023-04-09T07:12:03;101363.59;;;12.65;46.07
56042;BME280;48756;41.374;2.066;2023-04-09T07:14:28;101358.28;;;12.78;46.11
56042;BME280;48756;41.374;2.066;2023-04-09T07:16:53;101369.69;;;12.71;45.71
56042;BME280;48756;41.374;2.066;2023-04-09T07:19:19;101367.00;;;12.76;45.47
56042;BME280;48756;41.374;2.066;2023-04-09T07:21:44;101360.72;;;12.98;44.34
56042;BME280;48756;41.374;2.066;2023-04-09T07:24:10;101355.34;;;13.10;43.91
56042;BME280;48756;41.374;2.066;2023-04-09T07:26:35;101357.13;;;13.08;43.94
56042;BME280;48756;41.374;2.066;2023-04-09T07:29:01;101354.34;;;13.28;44.62
56042;BME280;48756;41.374;2.066;2023-04-09T07:31:27;101361.16;;;13.44;43.55
56042;BME280;48756;41.374;2.066;2023-04-09T07:33:53;101355.50;;;12.97;45.07
56042;BME280;48756;41.374;2.066;2023-04-09T07:36:18;101361.66;;;12.89;45.47
56042;BME280;48756;41.374;2.066;2023-04-09T07:38:43;101366.06;;;12.84;45.77
56042;BME280;48756;41.374;2.066;2023-04-09T07:41:11;101370.16;;;13.19;44.11
56042;BME280;48756;41.374;2.066;2023-04-09T07:43:37;101363.28;;;13.03;44.76
56042;BME280;48756;41.374;2.066;2023-04-09T07:46:02;101370.16;;;13.19;44.67
56042;BME280;48756;41.374;2.066;2023-04-09T07:48:28;101370.88;;;13.30;43.62
56042;BME280;48756;41.374;2.066;2023-04-09T07:50:53;101368.97;;;13.46;44.00
56042;BME280;48756;41.374;2.066;2023-04-09T07:53:18;101374.47;;;13.23;44.74
56042;BME280;48756;41.374;2.066;2023-04-09T07:55:44;101378.66;;;13.39;43.92
56042;BME280;48756;41.374;2.066;2023-04-09T07:58:09;101376.06;;;13.38;43.80
56042;BME280;48756;41.374;2.066;2023-04-09T08:00:37;101376.44;;;13.78;42.93
56042;BME280;48756;41.374;2.066;2023-04-09T08:03:03;101376.25;;;13.95;42.70
56042;BME280;48756;41.374;2.066;2023-04-09T08:05:28;101372.66;;;14.03;43.04
56042;BME280;48756;41.374;2.066;2023-04-09T08:07:54;101376.06;;;14.08;42.73
56042;BME280;48756;41.374;2.066;2023-04-09T08:10:20;101375.22;;;14.06;42.16
56042;BME280;48756;41.374;2.066;2023-04-09T08:12:46;101371.97;;;14.52;41.60
56042;BME280;48756;41.374;2.066;2023-04-09T08:15:12;101376.00;;;14.73;40.54
56042;BME280;48756;41.374;2.066;2023-04-09T08:17:37;101380.13;;;14.86;40.95
56042;BME280;48756;41.374;2.066;2023-04-09T08:20:03;101381.66;;;15.01;41.14
56042;BME280;48756;41.374;2.066;2023-04-09T08:22:28;101391.72;;;15.25;40.84
56042;BME280;48756;41.374;2.066;2023-04-09T08:24:54;101393.34;;;15.31;40.67
56042;BME280;48756;41.374;2.066;2023-04-09T08:27:20;101392.25;;;15.89;39.48
56042;BME280;48756;41.374;2.066;2023-04-09T08:29:46;101398.03;;;15.63;39.63
56042;BME280;48756;41.374;2.066;2023-04-09T08:32:11;101399.75;;;15.16;40.60
56042;BME280;48756;41.374;2.066;2023-04-09T08:34:36;101397.88;;;15.71;39.46
56042;BME280;48756;41.374;2.066;2023-04-09T08:37:02;101401.66;;;15.99;39.09
56042;BME280;48756;41.374;2.066;2023-04-09T08:39:27;101397.81;;;16.15;38.81
56042;BME280;48756;41.374;2.066;2023-04-09T08:41:53;101404.09;;;16.10;38.70
56042;BME280;48756;41.374;2.066;2023-04-09T08:44:24;101406.28;;;15.88;39.10
56042;BME280;48756;41.374;2.066;2023-04-09T08:46:50;101411.00;;;16.14;38.82
56042;BME280;48756;41.374;2.066;2023-04-09T08:49:15;101403.28;;;16.45;38.30
56042;BME280;48756;41.374;2.066;2023-04-09T08:51:44;101408.38;;;15.71;38.80
56042;BME280;48756;41.374;2.066;2023-04-09T08:54:13;101411.69;;;15.80;39.54
56042;BME280;48756;41.374;2.066;2023-04-09T08:56:38;101418.94;;;16.49;38.06
56042;BME280;48756;41.374;2.066;2023-04-09T08:59:03;101401.66;;;17.12;36.80
56042;BME280;48756;41.374;2.066;2023-04-09T09:01:30;101412.16;;;17.13;36.99
56042;BME280;48756;41.374;2.066;2023-04-09T09:03:56;101413.22;;;16.71;37.98
56042;BME280;48756;41.374;2.066;2023-04-09T09:06:22;101406.44;;;16.98;36.04
56042;BME280;48756;41.374;2.066;2023-04-09T09:11:29;101412.75;;;17.57;35.78
56042;BME280;48756;41.374;2.066;2023-04-09T09:13:58;101409.66;;;18.05;34.96
56042;BME280;48756;41.374;2.066;2023-04-09T09:16:24;101414.72;;;17.82;36.60
56042;BME280;48756;41.374;2.066;2023-04-09T09:18:49;101418.75;;;18.24;35.47
56042;BME280;48756;41.374;2.066;2023-04-09T09:21:18;101416.66;;;18.35;35.88
56042;BME280;48756;41.374;2.066;2023-04-09T09:23:44;101424.56;;;18.65;35.73
56042;BME280;48756;41.374;2.066;2023-04-09T09:26:11;101421.44;;;18.80;35.11
56042;BME280;48756;41.374;2.066;2023-04-09T09:28:36;101424.94;;;18.81;34.54
56042;BME280;48756;41.374;2.066;2023-04-09T09:31:08;101419.38;;;19.40;35.85
56042;BME280;48756;41.374;2.066;2023-04-09T09:33:33;101416.66;;;19.91;35.04
56042;BME280;48756;41.374;2.066;2023-04-09T09:35:59;101420.81;;;19.75;35.59
56042;BME280;48756;41.374;2.066;2023-04-09T09:38:27;101416.97;;;20.07;35.35
56042;BME280;48756;41.374;2.066;2023-04-09T09:40:53;101413.25;;;20.34;34.04
56042;BME280;48756;41.374;2.066;2023-04-09T09:43:18;101417.53;;;20.38;33.64
56042;BME280;48756;41.374;2.066;2023-04-09T09:45:44;101422.16;;;20.77;34.12
56042;BME280;48756;41.374;2.066;2023-04-09T09:48:10;101418.09;;;20.46;32.62
56042;BME280;48756;41.374;2.066;2023-04-09T09:50:39;101419.28;;;19.93;35.18
56042;BME280;48756;41.374;2.066;2023-04-09T09:53:08;101420.44;;;20.31;35.23
56042;BME280;48756;41.374;2.066;2023-04-09T09:55:37;101418.88;;;20.92;33.38
56042;BME280;48756;41.374;2.066;2023-04-09T09:58:07;101412.59;;;21.37;33.86
56042;BME280;48756;41.374;2.066;2023-04-09T10:00:36;101416.66;;;20.82;33.75
56042;BME280;48756;41.374;2.066;2023-04-09T10:03:18;101404.75;;;20.71;34.69
56042;BME280;48756;41.374;2.066;2023-04-09T10:05:45;101407.66;;;20.43;36.23
56042;BME280;48756;41.374;2.066;2023-04-09T10:08:12;101411.81;;;20.71;37.30
56042;BME280;48756;41.374;2.066;2023-04-09T10:10:38;101400.72;;;21.25;34.27
56042;BME280;48756;41.374;2.066;2023-04-09T10:13:04;101399.66;;;21.09;30.20
56042;BME280;48756;41.374;2.066;2023-04-09T10:15:30;101402.34;;;20.87;30.67
56042;BME280;48756;41.374;2.066;2023-04-09T10:17:56;101390.97;;;21.26;31.10
56042;BME280;48756;41.374;2.066;2023-04-09T10:20:23;101392.19;;;21.39;31.86
56042;BME280;48756;41.374;2.066;2023-04-09T10:22:51;101387.13;;;21.53;31.53
56042;BME280;48756;41.374;2.066;2023-04-09T10:25:16;101388.44;;;21.23;29.12
56042;BME280;48756;41.374;2.066;2023-04-09T10:27:42;101384.28;;;21.58;30.86
56042;BME280;48756;41.374;2.066;2023-04-09T10:30:26;101379.19;;;22.11;29.64
56042;BME280;48756;41.374;2.066;2023-04-09T10:32:55;101380.41;;;21.04;28.88
56042;BME280;48756;41.374;2.066;2023-04-09T10:35:24;101373.56;;;21.40;30.74
56042;BME280;48756;41.374;2.066;2023-04-09T10:37:49;101369.38;;;21.55;28.30
56042;BME280;48756;41.374;2.066;2023-04-09T10:40:17;101374.09;;;21.67;27.59
56042;BME280;48756;41.374;2.066;2023-04-09T10:42:44;101367.44;;;21.59;30.42
56042;BME280;48756;41.374;2.066;2023-04-09T10:45:11;101368.44;;;22.50;27.89
56042;BME280;48756;41.374;2.066;2023-04-09T10:47:37;101361.31;;;23.04;25.58
56042;BME280;48756;41.374;2.066;2023-04-09T10:50:19;101367.44;;;22.53;24.96
56042;BME280;48756;41.374;2.066;2023-04-09T10:52:45;101365.16;;;23.16;24.03
56042;BME280;48756;41.374;2.066;2023-04-09T10:55:30;101365.59;;;21.80;26.25
56042;BME280;48756;41.374;2.066;2023-04-09T10:57:57;101362.69;;;21.65;26.64
56042;BME280;48756;41.374;2.066;2023-04-09T11:00:22;101361.34;;;21.94;25.01
56042;BME280;48756;41.374;2.066;2023-04-09T11:02:53;101368.72;;;22.08;24.22
56042;BME280;48756;41.374;2.066;2023-04-09T11:05:29;101356.84;;;21.38;25.09
56042;BME280;48756;41.374;2.066;2023-04-09T11:10:26;101349.56;;;22.20;24.26
56042;BME280;48756;41.374;2.066;2023-04-09T11:12:52;101349.66;;;22.72;23.30
56042;BME280;48756;41.374;2.066;2023-04-09T11:15:19;101357.25;;;22.97;23.07
56042;BME280;48756;41.374;2.066;2023-04-09T11:17:45;101360.41;;;22.88;23.25
56042;BME280;48756;41.374;2.066;2023-04-09T11:20:11;101348.50;;;22.95;23.43
56042;BME280;48756;41.374;2.066;2023-04-09T11:22:37;101354.72;;;22.77;22.59
56042;BME280;48756;41.374;2.066;2023-04-09T11:25:02;101364.38;;;22.43;24.04
56042;BME280;48756;41.374;2.066;2023-04-09T11:27:28;101363.25;;;22.30;23.60
56042;BME280;48756;41.374;2.066;2023-04-09T11:29:56;101356.81;;;22.53;23.79
56042;BME280;48756;41.374;2.066;2023-04-09T11:32:21;101355.72;;;22.57;23.87
56042;BME280;48756;41.374;2.066;2023-04-09T11:34:46;101341.66;;;22.00;24.16
56042;BME280;48756;41.374;2.066;2023-04-09T11:37:14;101347.66;;;21.85;25.27
56042;BME280;48756;41.374;2.066;2023-04-09T11:39:44;101346.69;;;22.06;24.41
56042;BME280;48756;41.374;2.066;2023-04-09T11:42:13;101351.13;;;22.06;23.60
56042;BME280;48756;41.374;2.066;2023-04-09T11:44:38;101350.97;;;21.90;24.22
56042;BME280;48756;41.374;2.066;2023-04-09T11:47:05;101350.31;;;22.04;24.09
56042;BME280;48756;41.374;2.066;2023-04-09T11:49:31;101340.59;;;22.40;24.79
56042;BME280;48756;41.374;2.066;2023-04-09T11:51:56;101336.19;;;22.75;24.73
56042;BME280;48756;41.374;2.066;2023-04-09T11:54:22;101338.91;;;22.92;25.49
56042;BME280;48756;41.374;2.066;2023-04-09T11:56:48;101338.91;;;22.56;25.41
56042;BME280;48756;41.374;2.066;2023-04-09T11:59:19;101347.81;;;22.00;25.33
56042;BME280;48756;41.374;2.066;2023-04-09T12:01:48;101348.44;;;22.60;26.43
56042;BME280;48756;41.374;2.066;2023-04-09T12:04:18;101349.16;;;22.47;26.86
56042;BME280;48756;41.374;2.066;2023-04-09T12:06:43;101348.72;;;22.37;25.79
56042;BME280;48756;41.374;2.066;2023-04-09T12:09:09;101342.88;;;21.74;26.56
56042;BME280;48756;41.374;2.066;2023-04-09T12:11:37;101348.94;;;22.33;27.75
56042;BME280;48756;41.374;2.066;2023-04-09T12:14:03;101338.13;;;21.99;28.48
56042;BME280;48756;41.374;2.066;2023-04-09T12:16:29;101350.16;;;21.88;26.73
56042;BME280;48756;41.374;2.066;2023-04-09T12:18:59;101349.97;;;21.34;28.23
56042;BME280;48756;41.374;2.066;2023-04-09T12:21:24;101349.19;;;22.28;28.97
56042;BME280;48756;41.374;2.066;2023-04-09T12:23:51;101354.28;;;23.03;28.35
56042;BME280;48756;41.374;2.066;2023-04-09T12:26:16;101345.59;;;22.82;28.92
56042;BME280;48756;41.374;2.066;2023-04-09T12:28:41;101346.59;;;22.80;28.58
56042;BME280;48756;41.374;2.066;2023-04-09T12:31:09;101350.03;;;23.34;29.06
56042;BME280;48756;41.374;2.066;2023-04-09T12:33:35;101355.47;;;22.98;28.95
56042;BME280;48756;41.374;2.066;2023-04-09T12:36:03;101349.72;;;22.71;28.46
56042;BME280;48756;41.374;2.066;2023-04-09T12:38:28;101352.03;;;22.59;29.46
56042;BME280;48756;41.374;2.066;2023-04-09T12:40:53;101345.97;;;23.27;28.50
56042;BME280;48756;41.374;2.066;2023-04-09T12:43:19;101340.28;;;22.65;28.74
56042;BME280;48756;41.374;2.066;2023-04-09T12:45:44;101339.88;;;23.91;26.94
56042;BME280;48756;41.374;2.066;2023-04-09T12:48:10;101337.22;;;23.25;27.93
56042;BME280;48756;41.374;2.066;2023-04-09T12:50:36;101338.66;;;23.47;27.33
56042;BME280;48756;41.374;2.066;2023-04-09T12:53:01;101346.38;;;23.36;28.02
56042;BME280;48756;41.374;2.066;2023-04-09T12:55:26;101340.72;;;23.75;25.07
56042;BME280;48756;41.374;2.066;2023-04-09T12:57:52;101339.41;;;23.34;27.48